Bass Lake, Indiana
Current Conditions -  °F | °C
As of 2:35 AM on Thursday 27 Nov 2014 (Local Time) from KOXI Reporting Station
Overcast Overcast  
Wind Chill: 27°   Ceiling: 3500
Heat Index: 27°   Visibility: 7mi
Dew Point: 23°   Wind: 3mph
Humidity: 84%   Direction: 290°WNW
Pressure: 30.17"   Gusts: NA
Location:  41.2954°N, 86.6039°W
Report Text: KOXI 270835Z AUTO 29003KT 7SM BKN035 OVC044 M03/M05 A3017 RMK AO1 T10271051
Loading
Personal Weather Stations






























Interactive Weather Map New forecast layout! Learn more

10-Day Weather Forecast

Advertisements
Track Severe Weather on mobile